Time;durP1;ratioP1;P1;durP2;ratioP2;P2;SDS_P1;SDS_P2;PMS_P1;PMS_P2;Temp;Humidity;BMP_temperature;BMP_pressure;BME280_temperature;BME280_humidity;BME280_pressure;Samples;Min_cycle;Max_cycle;Signal;HPM_P1;HPM_P2
2022/02/26 00:01:38;;;;;;;3.47;2.60;;;;;;;;;;5025245;28;20202;-62
2022/02/26 00:04:11;;;;;;;3.83;2.50;;;;;;;;;;5021592;28;20215;-63
2022/02/26 00:06:48;;;;;;;3.30;2.47;;;;;;;;;;5012049;28;20206;-63
2022/02/26 00:09:20;;;;;;;3.27;2.40;;;;;;;;;;5016310;28;20613;-61
2022/02/26 00:11:52;;;;;;;2.87;2.17;;;;;;;;;;5005111;28;20230;-62
2022/02/26 00:14:29;;;;;;;3.53;2.43;;;;;;;;;;5026101;28;20585;-62
2022/02/26 00:17:02;;;;;;;3.13;2.33;;;;;;;;;;5013074;28;20231;-63
2022/02/26 00:19:35;;;;;;;2.90;2.13;;;;;;;;;;5012185;28;20227;-62
2022/02/26 00:22:04;;;;;;;3.97;2.30;;;;;;;;;;5026275;28;20221;-62
2022/02/26 00:24:36;;;;;;;3.67;2.60;;;;;;;;;;5028599;28;20229;-62
2022/02/26 00:27:07;;;;;;;2.67;1.90;;;;;;;;;;5020129;28;20214;-61
2022/02/26 00:29:37;;;;;;;4.00;2.47;;;;;;;;;;5011055;28;20234;-63
2022/02/26 00:32:07;;;;;;;3.67;2.60;;;;;;;;;;5022376;28;20215;-62
2022/02/26 00:34:38;;;;;;;3.67;2.57;;;;;;;;;;5023449;28;20608;-63
2022/02/26 00:37:09;;;;;;;3.07;2.20;;;;;;;;;;5028157;28;20211;-62
2022/02/26 00:39:39;;;;;;;4.23;2.67;;;;;;;;;;5026568;28;20198;-62
2022/02/26 00:42:12;;;;;;;3.57;2.20;;;;;;;;;;5025479;28;20203;-64
2022/02/26 00:44:43;;;;;;;4.30;2.70;;;;;;;;;;5020389;28;20223;-63
2022/02/26 00:47:14;;;;;;;4.30;2.20;;;;;;;;;;5017890;28;20235;-62
2022/02/26 00:49:47;;;;;;;3.43;2.70;;;;;;;;;;5015221;28;20651;-64
2022/02/26 00:52:21;;;;;;;2.67;2.10;;;;;;;;;;5028607;28;20293;-63
2022/02/26 00:54:52;;;;;;;4.03;2.27;;;;;;;;;;5032896;28;20229;-61
2022/02/26 00:57:22;;;;;;;4.20;2.20;;;;;;;;;;5031573;28;20218;-61
2022/02/26 00:59:55;;;;;;;3.73;2.03;;;;;;;;;;5018996;28;20203;-61
2022/02/26 01:02:25;;;;;;;3.87;2.77;;;;;;;;;;5027581;28;20206;-63
2022/02/26 01:04:58;;;;;;;4.53;2.67;;;;;;;;;;5023560;28;20638;-62
2022/02/26 01:07:27;;;;;;;3.37;2.37;;;;;;;;;;5023416;28;20226;-61
2022/02/26 01:09:55;;;;;;;3.33;2.30;;;;;;;;;;5028514;28;20239;-62
2022/02/26 01:12:25;;;;;;;3.17;2.10;;;;;;;;;;5030394;28;20645;-61
2022/02/26 01:14:56;;;;;;;3.17;2.03;;;;;;;;;;5004853;28;20280;-62
2022/02/26 01:17:28;;;;;;;3.23;2.27;;;;;;;;;;5021004;28;20238;-62
2022/02/26 01:19:58;;;;;;;3.13;2.33;;;;;;;;;;5027326;28;20215;-63
2022/02/26 01:22:33;;;;;;;5.83;3.03;;;;;;;;;;5008854;28;20233;-62
2022/02/26 01:25:07;;;;;;;3.07;2.30;;;;;;;;;;5025080;28;20207;-61
2022/02/26 01:27:39;;;;;;;3.20;2.20;;;;;;;;;;5025826;28;20194;-62
2022/02/26 01:30:16;;;;;;;3.53;2.33;;;;;;;;;;5021863;28;20219;-61
2022/02/26 01:32:45;;;;;;;3.67;2.17;;;;;;;;;;5018072;28;20230;-60
2022/02/26 01:35:19;;;;;;;2.63;2.20;;;;;;;;;;5029222;28;20602;-61
2022/02/26 01:37:51;;;;;;;2.97;2.03;;;;;;;;;;5023725;28;20199;-63
2022/02/26 01:40:26;;;;;;;3.07;2.40;;;;;;;;;;5000071;28;20206;-61
2022/02/26 01:42:56;;;;;;;3.03;2.13;;;;;;;;;;5027540;28;20222;-64
2022/02/26 01:45:29;;;;;;;4.00;2.30;;;;;;;;;;5022149;28;20215;-62
2022/02/26 01:47:58;;;;;;;3.87;2.20;;;;;;;;;;5026362;28;20209;-62
2022/02/26 01:50:32;;;;;;;2.10;1.90;;;;;;;;;;5018451;28;20203;-62
2022/02/26 01:53:04;;;;;;;3.10;2.37;;;;;;;;;;5024348;28;20225;-62
2022/02/26 01:55:35;;;;;;;2.57;1.90;;;;;;;;;;5025446;28;23112;-62
2022/02/26 01:58:08;;;;;;;3.80;2.30;;;;;;;;;;5024703;28;20634;-63
2022/02/26 02:00:41;;;;;;;3.23;2.20;;;;;;;;;;5025860;28;20207;-62
2022/02/26 02:03:11;;;;;;;3.73;2.23;;;;;;;;;;5025137;28;20222;-61
2022/02/26 02:05:43;;;;;;;3.70;2.57;;;;;;;;;;5019962;28;20211;-63
2022/02/26 02:08:13;;;;;;;3.60;2.00;;;;;;;;;;5016173;28;20207;-61
2022/02/26 02:10:44;;;;;;;4.47;2.47;;;;;;;;;;4906841;28;3450835;-61
2022/02/26 02:13:13;;;;;;;3.97;2.60;;;;;;;;;;4998748;28;20201;-61
2022/02/26 02:15:44;;;;;;;2.97;2.10;;;;;;;;;;5000174;28;20207;-62
2022/02/26 02:18:17;;;;;;;3.67;2.30;;;;;;;;;;5025561;28;20635;-63
2022/02/26 02:20:47;;;;;;;2.97;2.17;;;;;;;;;;5024534;28;20325;-62
2022/02/26 02:23:24;;;;;;;4.13;2.10;;;;;;;;;;5012782;28;20654;-62
2022/02/26 02:25:55;;;;;;;2.37;1.87;;;;;;;;;;5015854;28;20198;-62
2022/02/26 02:28:33;;;;;;;2.67;1.80;;;;;;;;;;5015570;28;20207;-62
2022/02/26 02:31:05;;;;;;;3.37;2.50;;;;;;;;;;5026881;28;20187;-61
2022/02/26 02:33:43;;;;;;;3.17;1.90;;;;;;;;;;5024343;28;20215;-60
2022/02/26 02:36:20;;;;;;;4.10;2.30;;;;;;;;;;5008605;28;20214;-62
2022/02/26 02:38:51;;;;;;;2.57;1.97;;;;;;;;;;5026528;28;20235;-61
2022/02/26 02:41:23;;;;;;;3.17;1.70;;;;;;;;;;5018550;28;20207;-63
2022/02/26 02:43:54;;;;;;;3.17;2.13;;;;;;;;;;5023911;28;20219;-63
2022/02/26 02:46:24;;;;;;;3.37;2.33;;;;;;;;;;5026125;28;20211;-62
2022/02/26 02:48:57;;;;;;;3.67;2.40;;;;;;;;;;5027238;28;20225;-63
2022/02/26 02:51:30;;;;;;;4.40;2.20;;;;;;;;;;5010974;28;20289;-62
2022/02/26 02:54:00;;;;;;;2.93;2.00;;;;;;;;;;5013699;28;20202;-62
2022/02/26 02:56:35;;;;;;;3.07;1.70;;;;;;;;;;5007806;28;20247;-62
2022/02/26 02:59:06;;;;;;;2.73;2.17;;;;;;;;;;5025911;28;20194;-61
2022/02/26 03:01:36;;;;;;;3.47;1.90;;;;;;;;;;5014040;28;20634;-62
2022/02/26 03:04:14;;;;;;;3.57;2.30;;;;;;;;;;5012000;28;20199;-61
2022/02/26 03:06:51;;;;;;;4.10;2.07;;;;;;;;;;5026478;28;20198;-63
2022/02/26 03:09:20;;;;;;;2.00;1.60;;;;;;;;;;5023286;28;20240;-61
2022/02/26 03:11:50;;;;;;;3.60;1.70;;;;;;;;;;5032331;28;20248;-61
2022/02/26 03:14:21;;;;;;;3.03;1.70;;;;;;;;;;5036378;28;20208;-61
2022/02/26 03:16:54;;;;;;;3.93;1.80;;;;;;;;;;5000715;28;20281;-61
2022/02/26 03:19:25;;;;;;;2.73;1.80;;;;;;;;;;5014375;28;20558;-62
2022/02/26 03:21:54;;;;;;;4.03;1.97;;;;;;;;;;5024444;28;20210;-61
2022/02/26 03:24:24;;;;;;;2.63;2.00;;;;;;;;;;5027683;28;20207;-62
2022/02/26 03:26:57;;;;;;;4.07;2.10;;;;;;;;;;5026741;28;20206;-62
2022/02/26 03:29:32;;;;;;;2.73;1.60;;;;;;;;;;5007666;28;20227;-63
2022/02/26 03:32:02;;;;;;;3.70;2.00;;;;;;;;;;5012869;28;20760;-62
2022/02/26 03:34:35;;;;;;;2.33;1.40;;;;;;;;;;5026363;28;20205;-62
2022/02/26 03:37:08;;;;;;;3.33;2.13;;;;;;;;;;5026354;28;20263;-61
2022/02/26 03:39:40;;;;;;;2.37;1.70;;;;;;;;;;5011633;28;20206;-64
2022/02/26 03:42:12;;;;;;;2.77;1.97;;;;;;;;;;5026170;28;20829;-62
2022/02/26 03:44:47;;;;;;;3.47;1.90;;;;;;;;;;5009093;28;20651;-62
2022/02/26 03:47:24;;;;;;;3.23;2.10;;;;;;;;;;5012418;28;20201;-61
2022/02/26 03:49:56;;;;;;;2.70;2.00;;;;;;;;;;5027153;28;20215;-63
2022/02/26 03:52:33;;;;;;;2.63;2.00;;;;;;;;;;5030934;28;20485;-62
2022/02/26 03:55:02;;;;;;;3.13;1.90;;;;;;;;;;5026462;28;20187;-61
2022/02/26 03:57:34;;;;;;;2.77;1.83;;;;;;;;;;5021199;28;20212;-63
2022/02/26 04:00:06;;;;;;;3.77;2.33;;;;;;;;;;5017893;28;20206;-61
2022/02/26 04:02:38;;;;;;;3.27;1.77;;;;;;;;;;5010360;28;20703;-64
2022/02/26 04:05:06;;;;;;;2.73;1.73;;;;;;;;;;5022279;28;20195;-62
2022/02/26 04:07:36;;;;;;;3.47;2.07;;;;;;;;;;5014207;28;20254;-64
2022/02/26 04:10:06;;;;;;;2.77;1.80;;;;;;;;;;5022107;28;20221;-61
2022/02/26 04:12:36;;;;;;;2.47;1.57;;;;;;;;;;5024798;28;20206;-62
2022/02/26 04:15:04;;;;;;;3.27;1.80;;;;;;;;;;5030513;28;20194;-64
2022/02/26 04:17:36;;;;;;;3.67;1.70;;;;;;;;;;5019031;28;20204;-62
2022/02/26 04:20:10;;;;;;;3.67;1.93;;;;;;;;;;5026487;28;20215;-61
2022/02/26 04:22:40;;;;;;;2.03;1.43;;;;;;;;;;5004950;28;20200;-62
2022/02/26 04:25:11;;;;;;;3.40;1.90;;;;;;;;;;5020334;28;20206;-63
2022/02/26 04:27:41;;;;;;;2.07;1.70;;;;;;;;;;5025631;28;20214;-62
2022/02/26 04:30:11;;;;;;;2.83;1.63;;;;;;;;;;5024969;28;20219;-61
2022/02/26 04:32:42;;;;;;;3.50;1.83;;;;;;;;;;5020300;28;20205;-64
2022/02/26 04:35:15;;;;;;;2.97;2.07;;;;;;;;;;5026549;28;20204;-61
2022/02/26 04:37:48;;;;;;;3.57;2.13;;;;;;;;;;5018097;28;20202;-61
2022/02/26 04:40:18;;;;;;;2.53;1.77;;;;;;;;;;5026744;28;20825;-62
2022/02/26 04:42:49;;;;;;;2.30;1.40;;;;;;;;;;5013291;28;20211;-61
2022/02/26 04:45:21;;;;;;;2.97;1.80;;;;;;;;;;5019278;28;20677;-61
2022/02/26 04:47:53;;;;;;;3.33;2.00;;;;;;;;;;5022304;28;20662;-61
2022/02/26 04:50:24;;;;;;;3.07;1.90;;;;;;;;;;5025877;28;20452;-60
2022/02/26 04:52:59;;;;;;;2.47;1.63;;;;;;;;;;5021304;28;20203;-62
2022/02/26 04:55:31;;;;;;;3.00;1.90;;;;;;;;;;5018968;28;20591;-61
2022/02/26 04:58:02;;;;;;;2.53;1.67;;;;;;;;;;5026297;28;20191;-63
2022/02/26 05:00:30;;;;;;;3.37;1.90;;;;;;;;;;5020833;28;20207;-62
2022/02/26 05:03:01;;;;;;;4.50;2.33;;;;;;;;;;5024340;28;20211;-62
2022/02/26 05:05:33;;;;;;;2.67;1.70;;;;;;;;;;4986855;28;20195;-61
2022/02/26 05:08:02;;;;;;;2.77;2.07;;;;;;;;;;5017743;28;20221;-61
2022/02/26 05:10:33;;;;;;;2.97;2.10;;;;;;;;;;5023118;28;20246;-62
2022/02/26 05:13:04;;;;;;;3.30;2.23;;;;;;;;;;5005543;28;20194;-61
2022/02/26 05:15:36;;;;;;;3.10;2.17;;;;;;;;;;5020826;28;20208;-64
2022/02/26 05:18:08;;;;;;;3.13;1.80;;;;;;;;;;5026962;28;20210;-63
2022/02/26 05:20:40;;;;;;;2.90;2.00;;;;;;;;;;5022151;28;20219;-63
2022/02/26 05:23:09;;;;;;;2.23;1.50;;;;;;;;;;5025661;28;20569;-60
2022/02/26 05:25:39;;;;;;;2.60;1.70;;;;;;;;;;5023548;28;20191;-61
2022/02/26 05:28:10;;;;;;;2.93;2.00;;;;;;;;;;5005052;28;20215;-61
2022/02/26 05:30:42;;;;;;;2.33;1.90;;;;;;;;;;5018024;28;20219;-63
2022/02/26 05:33:14;;;;;;;2.30;1.73;;;;;;;;;;5012093;28;20549;-60
2022/02/26 05:35:54;;;;;;;2.93;2.13;;;;;;;;;;5017102;28;20643;-62
2022/02/26 05:38:26;;;;;;;3.47;2.17;;;;;;;;;;5020154;28;20207;-62
2022/02/26 05:40:56;;;;;;;3.17;2.10;;;;;;;;;;5030184;28;20203;-62
2022/02/26 05:43:27;;;;;;;3.07;1.90;;;;;;;;;;5022329;28;20650;-63
2022/02/26 05:46:05;;;;;;;3.53;2.30;;;;;;;;;;5011739;28;20210;-62
2022/02/26 05:48:36;;;;;;;3.63;2.00;;;;;;;;;;5020764;28;20278;-61
2022/02/26 05:51:07;;;;;;;3.43;1.90;;;;;;;;;;5023686;28;20525;-61
2022/02/26 05:53:38;;;;;;;3.53;2.17;;;;;;;;;;5011259;28;20289;-63
2022/02/26 05:56:08;;;;;;;3.23;1.80;;;;;;;;;;5038863;28;20236;-62
2022/02/26 05:58:39;;;;;;;3.13;2.07;;;;;;;;;;5024856;28;20214;-61
2022/02/26 06:01:09;;;;;;;2.80;2.07;;;;;;;;;;5027624;28;20614;-61
2022/02/26 06:03:40;;;;;;;4.00;2.23;;;;;;;;;;5026150;28;20210;-61
2022/02/26 06:06:12;;;;;;;2.30;1.87;;;;;;;;;;5024872;28;20293;-61
2022/02/26 06:08:39;;;;;;;2.93;2.07;;;;;;;;;;5023081;28;20219;-62
2022/02/26 06:11:09;;;;;;;2.43;1.90;;;;;;;;;;5024932;28;20360;-62
2022/02/26 06:13:37;;;;;;;3.23;2.10;;;;;;;;;;5026110;28;20261;-61
2022/02/26 06:16:10;;;;;;;3.63;2.33;;;;;;;;;;5017233;28;20192;-62
2022/02/26 06:18:41;;;;;;;3.30;2.10;;;;;;;;;;5029548;28;20626;-64
2022/02/26 06:21:09;;;;;;;3.40;1.97;;;;;;;;;;5046625;28;20215;-65
2022/02/26 06:23:41;;;;;;;2.60;1.90;;;;;;;;;;5010122;28;20203;-64
2022/02/26 06:26:12;;;;;;;2.70;1.90;;;;;;;;;;5031269;28;20286;-63
2022/02/26 06:28:40;;;;;;;3.27;1.93;;;;;;;;;;5030292;28;20211;-63
2022/02/26 06:31:12;;;;;;;2.53;2.33;;;;;;;;;;5026630;28;20218;-64
2022/02/26 06:33:44;;;;;;;2.97;2.00;;;;;;;;;;5013054;28;20198;-64
2022/02/26 06:36:16;;;;;;;2.43;1.93;;;;;;;;;;5030128;28;20238;-63
2022/02/26 06:38:47;;;;;;;2.83;1.77;;;;;;;;;;5022182;28;20200;-64
2022/02/26 06:41:15;;;;;;;2.57;2.10;;;;;;;;;;5017250;28;20238;-65
2022/02/26 06:43:45;;;;;;;2.90;1.80;;;;;;;;;;5039545;28;20207;-64
2022/02/26 06:46:18;;;;;;;2.80;1.73;;;;;;;;;;5027323;28;20191;-63
2022/02/26 06:48:52;;;;;;;3.47;2.30;;;;;;;;;;5012042;28;20210;-63
2022/02/26 06:51:21;;;;;;;2.80;1.93;;;;;;;;;;4991444;28;20288;-63
2022/02/26 06:53:54;;;;;;;2.27;1.97;;;;;;;;;;5027913;28;20214;-64
2022/02/26 06:56:26;;;;;;;3.00;1.90;;;;;;;;;;5031962;28;20217;-63
2022/02/26 06:58:57;;;;;;;2.83;2.30;;;;;;;;;;5025149;28;20235;-64
2022/02/26 07:01:27;;;;;;;3.27;2.40;;;;;;;;;;5022156;28;20206;-63
2022/02/26 07:03:57;;;;;;;2.17;1.87;;;;;;;;;;5025830;28;20210;-63
2022/02/26 07:06:32;;;;;;;3.00;2.00;;;;;;;;;;5029312;28;20218;-63
2022/02/26 07:09:03;;;;;;;3.47;1.93;;;;;;;;;;5022619;28;20226;-63
2022/02/26 07:11:38;;;;;;;2.60;1.83;;;;;;;;;;5024693;28;20234;-63
2022/02/26 07:14:09;;;;;;;1.87;1.70;;;;;;;;;;5017425;28;20199;-62
2022/02/26 07:16:40;;;;;;;3.30;2.13;;;;;;;;;;5007001;28;20237;-63
2022/02/26 07:19:11;;;;;;;3.67;2.23;;;;;;;;;;5027599;28;20693;-62
2022/02/26 07:21:51;;;;;;;2.63;2.13;;;;;;;;;;5026821;28;20209;-62
2022/02/26 07:24:21;;;;;;;3.13;2.10;;;;;;;;;;5023161;28;20210;-61
2022/02/26 07:26:53;;;;;;;2.47;2.27;;;;;;;;;;5028418;28;20249;-63
2022/02/26 07:29:25;;;;;;;2.17;1.97;;;;;;;;;;5022607;28;20258;-63
2022/02/26 07:31:54;;;;;;;2.97;2.00;;;;;;;;;;5003084;28;20242;-62
2022/02/26 07:34:23;;;;;;;2.70;1.90;;;;;;;;;;5016718;28;20516;-63
2022/02/26 07:36:54;;;;;;;2.37;1.83;;;;;;;;;;5024180;28;20788;-64
2022/02/26 07:39:25;;;;;;;3.27;2.70;;;;;;;;;;5023914;28;20203;-64
2022/02/26 07:41:55;;;;;;;2.53;2.23;;;;;;;;;;5010787;28;20290;-63
2022/02/26 07:44:26;;;;;;;3.57;2.20;;;;;;;;;;5017024;28;20212;-62
2022/02/26 07:46:59;;;;;;;3.37;2.50;;;;;;;;;;5015297;28;20216;-65
2022/02/26 07:49:31;;;;;;;3.37;2.10;;;;;;;;;;5030032;28;20198;-64
2022/02/26 07:52:04;;;;;;;2.90;2.17;;;;;;;;;;5025134;28;20210;-66
2022/02/26 07:54:35;;;;;;;3.53;2.10;;;;;;;;;;5027815;28;20211;-66
2022/02/26 07:57:07;;;;;;;2.47;1.83;;;;;;;;;;4996590;28;20301;-64
2022/02/26 07:59:39;;;;;;;2.50;2.27;;;;;;;;;;5019455;28;20581;-63
2022/02/26 08:02:09;;;;;;;3.00;2.13;;;;;;;;;;4995025;28;20674;-62
2022/02/26 08:04:51;;;;;;;3.50;2.03;;;;;;;;;;5020687;28;20282;-61
2022/02/26 08:07:22;;;;;;;3.67;2.73;;;;;;;;;;5002470;28;20260;-64
2022/02/26 08:09:54;;;;;;;2.87;2.10;;;;;;;;;;5009190;28;20219;-63
2022/02/26 08:12:25;;;;;;;2.13;1.90;;;;;;;;;;5015723;28;20646;-62
2022/02/26 08:15:01;;;;;;;2.50;2.23;;;;;;;;;;5027214;28;20250;-64
2022/02/26 08:17:45;;;;;;;2.93;2.40;;;;;;;;;;5026984;28;20223;-63
2022/02/26 08:20:17;;;;;;;2.80;2.07;;;;;;;;;;5018204;28;20570;-63
2022/02/26 08:23:00;;;;;;;2.43;2.23;;;;;;;;;;5024764;28;20262;-63
2022/02/26 08:25:31;;;;;;;2.60;2.20;;;;;;;;;;5037332;28;20218;-63
2022/02/26 08:28:01;;;;;;;2.87;2.30;;;;;;;;;;5026065;28;20206;-62
2022/02/26 08:30:30;;;;;;;3.10;2.07;;;;;;;;;;5024997;28;20227;-63
2022/02/26 08:33:01;;;;;;;4.33;2.47;;;;;;;;;;5008826;28;20277;-64
2022/02/26 08:35:32;;;;;;;3.83;2.50;;;;;;;;;;5014377;28;20627;-62
2022/02/26 08:38:01;;;;;;;3.73;2.63;;;;;;;;;;5019493;28;20208;-63
2022/02/26 08:40:33;;;;;;;3.10;2.30;;;;;;;;;;5036603;28;20213;-63
2022/02/26 08:43:06;;;;;;;3.33;2.60;;;;;;;;;;5027972;28;20331;-62
2022/02/26 08:45:36;;;;;;;2.63;2.43;;;;;;;;;;5022002;28;20891;-63
2022/02/26 08:48:06;;;;;;;3.43;3.10;;;;;;;;;;5017211;28;20198;-62
2022/02/26 08:50:34;;;;;;;3.70;2.77;;;;;;;;;;5028156;28;20234;-62
2022/02/26 08:53:04;;;;;;;3.57;3.17;;;;;;;;;;5012841;28;20195;-62
2022/02/26 08:55:34;;;;;;;4.37;2.87;;;;;;;;;;5007343;28;20634;-63
2022/02/26 08:58:01;;;;;;;4.13;2.63;;;;;;;;;;5021060;28;20199;-63
2022/02/26 09:00:31;;;;;;;4.50;2.60;;;;;;;;;;5005048;28;20213;-63
2022/02/26 09:03:03;;;;;;;3.40;2.73;;;;;;;;;;5025501;28;20290;-63
2022/02/26 09:05:32;;;;;;;3.97;3.00;;;;;;;;;;5019933;28;20234;-63
2022/02/26 09:08:07;;;;;;;3.53;2.80;;;;;;;;;;4992495;28;20219;-62
2022/02/26 09:10:35;;;;;;;3.37;2.93;;;;;;;;;;5023436;28;20254;-63
2022/02/26 09:13:04;;;;;;;3.00;2.70;;;;;;;;;;5032789;28;20195;-65
2022/02/26 09:15:42;;;;;;;3.47;2.53;;;;;;;;;;5008702;28;20647;-62
2022/02/26 09:18:14;;;;;;;3.43;2.83;;;;;;;;;;5028341;28;20206;-61
2022/02/26 09:20:47;;;;;;;4.30;3.13;;;;;;;;;;5026724;28;20207;-63
2022/02/26 09:23:18;;;;;;;3.60;2.73;;;;;;;;;;5027037;28;20548;-62
2022/02/26 09:25:48;;;;;;;3.73;2.57;;;;;;;;;;5029080;28;20622;-61
2022/02/26 09:28:17;;;;;;;4.00;3.00;;;;;;;;;;5017664;28;20284;-61
2022/02/26 09:30:48;;;;;;;3.90;2.90;;;;;;;;;;5029809;28;20674;-62
2022/02/26 09:33:20;;;;;;;2.90;2.53;;;;;;;;;;5023349;28;20223;-62
2022/02/26 09:35:49;;;;;;;3.73;2.97;;;;;;;;;;5009054;28;20289;-63
2022/02/26 09:38:18;;;;;;;3.60;2.60;;;;;;;;;;5027336;28;20218;-64
2022/02/26 09:40:51;;;;;;;3.97;2.83;;;;;;;;;;5028881;28;20595;-62
2022/02/26 09:43:23;;;;;;;4.23;3.00;;;;;;;;;;5024002;28;20218;-63
2022/02/26 09:45:54;;;;;;;3.63;3.27;;;;;;;;;;5033775;28;20313;-63
2022/02/26 09:48:24;;;;;;;3.30;3.00;;;;;;;;;;5037545;28;20584;-62
2022/02/26 09:50:54;;;;;;;3.30;3.00;;;;;;;;;;5030423;28;20361;-61
2022/02/26 09:53:24;;;;;;;3.97;2.87;;;;;;;;;;5015838;28;20208;-61
2022/02/26 09:55:58;;;;;;;3.77;3.23;;;;;;;;;;5016084;28;20340;-62
2022/02/26 09:58:35;;;;;;;3.60;2.93;;;;;;;;;;5011521;28;20200;-62
2022/02/26 10:01:07;;;;;;;5.73;3.50;;;;;;;;;;5023030;28;20210;-62
2022/02/26 10:03:36;;;;;;;4.83;3.17;;;;;;;;;;5026005;28;20199;-61
2022/02/26 10:06:19;;;;;;;3.10;2.80;;;;;;;;;;5005528;28;20190;-61
2022/02/26 10:09:00;;;;;;;5.07;3.70;;;;;;;;;;5023206;28;20223;-61
2022/02/26 10:11:37;;;;;;;4.07;3.17;;;;;;;;;;5031143;28;20330;-62
2022/02/26 10:14:16;;;;;;;3.80;3.40;;;;;;;;;;5030504;28;20195;-62
2022/02/26 10:16:46;;;;;;;4.17;3.60;;;;;;;;;;5025257;28;20229;-59
2022/02/26 10:19:30;;;;;;;4.20;3.73;;;;;;;;;;5021877;28;20244;-60
2022/02/26 10:22:09;;;;;;;3.83;3.47;;;;;;;;;;5016585;28;20196;-63
2022/02/26 10:24:40;;;;;;;3.67;3.37;;;;;;;;;;5027263;28;20207;-63
2022/02/26 10:27:12;;;;;;;4.37;3.97;;;;;;;;;;5023280;28;20199;-64
2022/02/26 10:29:41;;;;;;;4.83;4.20;;;;;;;;;;5028800;28;20222;-62
2022/02/26 10:32:13;;;;;;;4.67;3.93;;;;;;;;;;5012823;28;20752;-62
2022/02/26 10:34:47;;;;;;;3.83;3.50;;;;;;;;;;5016904;28;20697;-62
2022/02/26 10:37:22;;;;;;;4.00;3.60;;;;;;;;;;5037870;28;20218;-61
2022/02/26 10:40:00;;;;;;;4.30;3.87;;;;;;;;;;5024082;28;20640;-62
2022/02/26 10:42:32;;;;;;;5.10;3.60;;;;;;;;;;5023135;28;20206;-61
2022/02/26 10:45:12;;;;;;;4.03;3.63;;;;;;;;;;5024654;28;20223;-62
2022/02/26 10:47:44;;;;;;;4.97;3.73;;;;;;;;;;5023599;28;20652;-63
2022/02/26 10:50:25;;;;;;;4.67;3.97;;;;;;;;;;5026449;28;20214;-63
2022/02/26 10:52:57;;;;;;;4.37;3.97;;;;;;;;;;5011501;28;20662;-63
2022/02/26 10:55:49;;;;;;;3.97;3.50;;;;;;;;;;5017686;28;20575;-64
2022/02/26 10:58:26;;;;;;;4.70;4.20;;;;;;;;;;5034932;28;20206;-63
2022/02/26 11:01:02;;;;;;;3.93;3.53;;;;;;;;;;5010180;28;20229;-64
2022/02/26 11:03:32;;;;;;;4.00;3.67;;;;;;;;;;5000578;28;20266;-62
2022/02/26 11:06:06;;;;;;;4.13;3.73;;;;;;;;;;5016249;28;20649;-62
2022/02/26 11:08:43;;;;;;;4.10;3.70;;;;;;;;;;5030963;28;20209;-62
2022/02/26 11:11:11;;;;;;;5.37;4.87;;;;;;;;;;5024739;28;20264;-62
2022/02/26 11:13:43;;;;;;;4.43;3.90;;;;;;;;;;5018906;28;20206;-63
2022/02/26 11:16:14;;;;;;;4.40;4.00;;;;;;;;;;5011430;28;20628;-63
2022/02/26 11:18:50;;;;;;;4.77;4.27;;;;;;;;;;5026440;28;20300;-62
2022/02/26 11:21:25;;;;;;;4.33;3.93;;;;;;;;;;5022412;28;20827;-62
2022/02/26 11:23:57;;;;;;;4.50;4.10;;;;;;;;;;5026151;28;20203;-62
2022/02/26 11:26:28;;;;;;;4.20;3.80;;;;;;;;;;5025801;28;20207;-63
2022/02/26 11:29:05;;;;;;;4.73;4.10;;;;;;;;;;5017501;28;20214;-63
2022/02/26 11:31:49;;;;;;;4.93;4.43;;;;;;;;;;5023033;28;20278;-60
2022/02/26 11:34:27;;;;;;;4.40;4.00;;;;;;;;;;5017929;28;20199;-60
2022/02/26 11:37:03;;;;;;;4.60;4.20;;;;;;;;;;5013462;28;20207;-62
2022/02/26 11:39:53;;;;;;;5.07;4.57;;;;;;;;;;5024413;28;20183;-63
2022/02/26 11:42:24;;;;;;;4.80;4.23;;;;;;;;;;5026342;28;20207;-62
2022/02/26 11:44:54;;;;;;;5.10;3.97;;;;;;;;;;5024097;28;20220;-61
2022/02/26 11:47:24;;;;;;;5.40;4.70;;;;;;;;;;5002330;28;20215;-63
2022/02/26 11:50:18;;;;;;;4.40;4.00;;;;;;;;;;5025932;28;20206;-62
2022/02/26 11:52:53;;;;;;;5.40;4.90;;;;;;;;;;5026510;28;20305;-62
2022/02/26 11:55:37;;;;;;;5.13;4.40;;;;;;;;;;5023209;28;20194;-62
2022/02/26 11:58:34;;;;;;;5.60;4.90;;;;;;;;;;5024093;28;20199;-63
2022/02/26 12:01:18;;;;;;;6.33;5.40;;;;;;;;;;5022687;28;20208;-62
2022/02/26 12:04:01;;;;;;;6.33;5.70;;;;;;;;;;5038316;28;20525;-62
2022/02/26 12:06:35;;;;;;;6.10;5.50;;;;;;;;;;5027466;28;20207;-64
2022/02/26 12:09:11;;;;;;;7.90;6.70;;;;;;;;;;5018458;28;20242;-63
2022/02/26 12:11:44;;;;;;;6.80;5.97;;;;;;;;;;5011927;28;20235;-63
2022/02/26 12:14:30;;;;;;;6.60;5.93;;;;;;;;;;5014694;28;20203;-64
2022/02/26 12:17:08;;;;;;;7.00;6.30;;;;;;;;;;5023224;28;20227;-63
2022/02/26 12:19:51;;;;;;;8.03;6.70;;;;;;;;;;5020201;28;20306;-64
2022/02/26 12:22:34;;;;;;;8.23;6.53;;;;;;;;;;5017552;28;20199;-60
2022/02/26 12:25:11;;;;;;;8.37;7.00;;;;;;;;;;5017994;28;20200;-63
2022/02/26 12:27:44;;;;;;;9.23;7.17;;;;;;;;;;5015748;28;20692;-63
2022/02/26 12:30:17;;;;;;;9.13;7.53;;;;;;;;;;4991344;28;20203;-62
2022/02/26 12:33:02;;;;;;;7.80;7.00;;;;;;;;;;5018522;28;20238;-63
2022/02/26 12:35:33;;;;;;;8.90;6.87;;;;;;;;;;5022173;28;20545;-62
2022/02/26 12:38:25;;;;;;;8.67;7.30;;;;;;;;;;4990498;28;20210;-62
2022/02/26 12:41:01;;;;;;;9.93;7.30;;;;;;;;;;5016395;28;20310;-63
2022/02/26 12:43:31;;;;;;;7.83;6.93;;;;;;;;;;5011107;28;20211;-62
2022/02/26 12:46:07;;;;;;;9.33;7.33;;;;;;;;;;5030363;28;20634;-60
2022/02/26 12:48:38;;;;;;;7.83;6.27;;;;;;;;;;5029271;28;20210;-60
2022/02/26 12:51:07;;;;;;;7.77;6.30;;;;;;;;;;5028492;28;20195;-62
2022/02/26 12:53:37;;;;;;;7.17;6.17;;;;;;;;;;5017712;28;20266;-61
2022/02/26 12:56:08;;;;;;;7.63;5.40;;;;;;;;;;5025621;28;20213;-63
2022/02/26 12:58:39;;;;;;;5.97;5.07;;;;;;;;;;5030384;28;20694;-64
2022/02/26 13:01:24;;;;;;;7.87;5.53;;;;;;;;;;5014847;28;20207;-63
2022/02/26 13:04:00;;;;;;;7.40;4.80;;;;;;;;;;5030521;28;20210;-63
2022/02/26 13:06:33;;;;;;;6.63;5.40;;;;;;;;;;5025390;28;20222;-60
2022/02/26 13:09:07;;;;;;;7.00;5.03;;;;;;;;;;5017677;28;20225;-62
2022/02/26 13:11:44;;;;;;;6.90;5.77;;;;;;;;;;5024859;28;20246;-63
2022/02/26 13:14:12;;;;;;;7.27;5.30;;;;;;;;;;5033377;28;20284;-63
2022/02/26 13:16:54;;;;;;;7.47;5.40;;;;;;;;;;5030829;28;20638;-64
2022/02/26 13:19:27;;;;;;;6.53;5.03;;;;;;;;;;5004424;28;20254;-65
2022/02/26 13:22:03;;;;;;;7.23;5.63;;;;;;;;;;5025244;28;20258;-63
2022/02/26 13:24:42;;;;;;;7.00;4.90;;;;;;;;;;5029215;28;20249;-64
2022/02/26 13:27:15;;;;;;;8.53;5.40;;;;;;;;;;5008737;28;20272;-63
2022/02/26 13:29:54;;;;;;;8.80;5.43;;;;;;;;;;5008428;28;20207;-63
2022/02/26 13:32:29;;;;;;;7.93;5.67;;;;;;;;;;5011835;28;20243;-64
2022/02/26 13:35:02;;;;;;;6.90;5.73;;;;;;;;;;5022621;28;20208;-63
2022/02/26 13:37:33;;;;;;;9.13;5.40;;;;;;;;;;5013925;28;20207;-65
2022/02/26 13:40:06;;;;;;;6.90;5.37;;;;;;;;;;5028543;28;20207;-62
2022/02/26 13:42:36;;;;;;;7.53;6.03;;;;;;;;;;5028205;28;20195;-60
2022/02/26 13:45:15;;;;;;;6.70;5.50;;;;;;;;;;5017181;28;20239;-64
2022/02/26 13:47:51;;;;;;;6.90;5.73;;;;;;;;;;5026199;28;20191;-66
2022/02/26 13:50:26;;;;;;;8.47;6.07;;;;;;;;;;5020577;28;20392;-63
2022/02/26 13:53:06;;;;;;;8.23;5.80;;;;;;;;;;5015411;28;20728;-65
2022/02/26 13:55:36;;;;;;;9.47;5.50;;;;;;;;;;4993649;28;20207;-63
2022/02/26 13:58:06;;;;;;;7.10;5.57;;;;;;;;;;5022040;28;20195;-64
2022/02/26 14:00:38;;;;;;;7.23;5.97;;;;;;;;;;5033175;28;20207;-63
2022/02/26 14:03:13;;;;;;;8.73;5.20;;;;;;;;;;5017764;28;20262;-62
2022/02/26 14:05:48;;;;;;;7.60;5.90;;;;;;;;;;5011901;28;20223;-62
2022/02/26 14:08:15;;;;;;;9.00;6.10;;;;;;;;;;5011724;28;20215;-62
2022/02/26 14:10:44;;;;;;;6.50;5.23;;;;;;;;;;5026240;28;20242;-63
2022/02/26 14:13:28;;;;;;;8.50;5.07;;;;;;;;;;5025687;28;20221;-64
2022/02/26 14:16:00;;;;;;;7.43;5.30;;;;;;;;;;5028678;28;20195;-63
2022/02/26 14:18:35;;;;;;;8.87;5.33;;;;;;;;;;5025621;28;20210;-63
2022/02/26 14:21:09;;;;;;;6.23;4.53;;;;;;;;;;5023921;28;20207;-61
2022/02/26 14:23:56;;;;;;;6.27;5.00;;;;;;;;;;4992041;28;20211;-61
2022/02/26 14:26:25;;;;;;;6.43;5.03;;;;;;;;;;5026924;28;20199;-61
2022/02/26 14:28:53;;;;;;;6.90;4.97;;;;;;;;;;5026201;28;20335;-62
2022/02/26 14:31:29;;;;;;;6.80;4.50;;;;;;;;;;5024781;28;20211;-61
2022/02/26 14:33:59;;;;;;;5.33;4.70;;;;;;;;;;5028862;28;20199;-64
2022/02/26 14:36:27;;;;;;;6.80;4.40;;;;;;;;;;5017301;28;20657;-62
2022/02/26 14:38:58;;;;;;;5.97;4.50;;;;;;;;;;5010281;28;20223;-62
2022/02/26 14:41:28;;;;;;;7.07;5.07;;;;;;;;;;5023950;28;20207;-63
2022/02/26 14:43:56;;;;;;;6.20;4.37;;;;;;;;;;5023449;28;20221;-63
2022/02/26 14:46:27;;;;;;;4.40;3.80;;;;;;;;;;5027845;28;20203;-61
2022/02/26 14:48:58;;;;;;;5.50;4.10;;;;;;;;;;5028192;28;20650;-60
2022/02/26 14:51:35;;;;;;;6.10;4.00;;;;;;;;;;5037445;28;20582;-61
2022/02/26 14:54:04;;;;;;;4.83;3.90;;;;;;;;;;5025044;28;20204;-61
2022/02/26 14:56:35;;;;;;;5.53;4.07;;;;;;;;;;5018910;28;20211;-63
2022/02/26 14:59:06;;;;;;;5.00;3.67;;;;;;;;;;5014320;28;20217;-63
2022/02/26 15:01:35;;;;;;;4.80;3.77;;;;;;;;;;5021558;28;20210;-61
2022/02/26 15:04:06;;;;;;;4.40;3.30;;;;;;;;;;5027084;28;20214;-61
2022/02/26 15:06:36;;;;;;;5.73;3.60;;;;;;;;;;5027653;28;20191;-64
2022/02/26 15:09:08;;;;;;;4.30;3.43;;;;;;;;;;5006260;28;20561;-63
2022/02/26 15:11:46;;;;;;;4.63;3.43;;;;;;;;;;5023833;28;20234;-63
2022/02/26 15:14:17;;;;;;;5.87;3.90;;;;;;;;;;4995885;28;20207;-64
2022/02/26 15:17:00;;;;;;;5.03;3.67;;;;;;;;;;5026438;28;20199;-60